createdAt,value
2018-11-02T00:01:56.446Z,49.97
2018-11-02T00:04:25.090Z,45.93
2018-11-02T00:06:53.717Z,47.43
2018-11-02T00:09:22.363Z,48.03
2018-11-02T00:11:51.001Z,45.83
2018-11-02T00:14:19.638Z,44.80
2018-11-02T00:16:48.273Z,45.83
2018-11-02T00:19:21.277Z,49.53
2018-11-02T00:21:49.910Z,49.23
2018-11-02T00:24:18.504Z,48.13
2018-11-02T00:26:47.159Z,53.50
2018-11-02T00:29:15.837Z,44.43
2018-11-02T00:31:44.499Z,47.47
2018-11-02T00:34:13.232Z,49.97
2018-11-02T00:36:41.853Z,49.47
2018-11-02T00:39:10.701Z,51.23
2018-11-02T00:41:39.499Z,52.87
2018-11-02T00:44:09.098Z,50.63
2018-11-02T00:46:37.872Z,49.80
2018-11-02T00:49:06.881Z,51.03
2018-11-02T00:51:36.393Z,48.30
2018-11-02T00:54:05.429Z,49.47
2018-11-02T00:56:34.145Z,50.47
2018-11-02T00:59:02.779Z,47.60
2018-11-02T01:01:31.461Z,48.73
2018-11-02T01:04:00.097Z,49.30
2018-11-02T01:06:29.202Z,45.77
2018-11-02T01:08:57.918Z,47.70
2018-11-02T01:11:26.612Z,48.83
2018-11-02T01:13:55.230Z,47.10
2018-11-02T01:16:23.947Z,48.53
2018-11-02T01:18:52.572Z,48.70
2018-11-02T01:21:21.213Z,51.17
2018-11-02T01:23:49.843Z,49.07
2018-11-02T01:26:18.484Z,48.60
2018-11-02T01:28:47.148Z,47.80
2018-11-02T01:31:15.793Z,46.47
2018-11-02T01:33:44.496Z,48.70
2018-11-02T01:36:13.173Z,48.73
2018-11-02T01:38:41.785Z,49.93
2018-11-02T01:41:10.473Z,48.60
2018-11-02T01:43:39.110Z,49.00
2018-11-02T01:46:07.749Z,44.40
2018-11-02T01:48:36.410Z,48.07
2018-11-02T01:51:05.087Z,47.87
2018-11-02T01:53:33.724Z,49.40
2018-11-02T01:56:02.360Z,47.40
2018-11-02T01:58:31.033Z,46.33
2018-11-02T02:00:59.694Z,47.30
2018-11-02T02:03:28.317Z,43.73
2018-11-02T02:05:57.029Z,45.90
2018-11-02T02:08:25.666Z,42.67
2018-11-02T02:10:54.362Z,45.07
2018-11-02T02:13:23.164Z,45.93
2018-11-02T02:15:51.671Z,43.70
2018-11-02T02:18:20.339Z,42.57
2018-11-02T02:20:49.007Z,43.93
2018-11-02T02:23:17.688Z,47.07
2018-11-02T02:25:46.389Z,47.50
2018-11-02T02:28:15.083Z,39.93
2018-11-02T02:30:43.726Z,45.80
2018-11-02T02:33:12.363Z,47.00
2018-11-02T02:35:41.081Z,45.43
2018-11-02T02:38:09.787Z,42.97
2018-11-02T02:40:38.454Z,42.93
2018-11-02T02:43:07.123Z,43.33
2018-11-02T02:45:35.795Z,42.63
2018-11-02T02:48:04.529Z,43.13
2018-11-02T02:50:33.188Z,43.57
2018-11-02T02:53:01.815Z,43.67
2018-11-02T02:55:30.476Z,45.57
2018-11-02T02:57:59.100Z,49.27
2018-11-02T03:00:27.848Z,45.90
2018-11-02T03:02:56.577Z,45.33
2018-11-02T03:05:25.320Z,41.83
2018-11-02T03:07:53.960Z,42.43
2018-11-02T03:10:22.710Z,51.70
2018-11-02T03:12:51.313Z,43.97
2018-11-02T03:15:19.962Z,44.23
2018-11-02T03:17:48.594Z,49.63
2018-11-02T03:20:17.341Z,47.73
2018-11-02T03:22:46.067Z,46.63
2018-11-02T03:25:14.765Z,41.23
2018-11-02T03:27:43.445Z,50.33
2018-11-02T03:30:12.652Z,52.30
2018-11-02T03:32:41.546Z,45.77
2018-11-02T03:35:10.630Z,49.13
2018-11-02T03:37:39.333Z,44.17
2018-11-02T03:40:09.443Z,45.57
2018-11-02T03:42:38.090Z,45.60
2018-11-02T03:45:07.040Z,46.77
2018-11-02T03:47:35.759Z,46.90
2018-11-02T03:50:04.646Z,45.23
2018-11-02T03:52:33.341Z,48.63
2018-11-02T03:55:02.003Z,44.87
2018-11-02T03:57:30.646Z,44.93
2018-11-02T03:59:59.457Z,48.03
2018-11-02T04:02:28.106Z,44.63
2018-11-02T04:04:56.858Z,44.60
2018-11-02T04:07:25.530Z,46.10
2018-11-02T04:09:54.244Z,48.43
2018-11-02T04:12:22.901Z,48.30
2018-11-02T04:14:51.518Z,46.83
2018-11-02T04:17:20.217Z,46.43
2018-11-02T04:19:48.888Z,49.10
2018-11-02T04:22:17.665Z,48.63
2018-11-02T04:24:46.338Z,41.10
2018-11-02T04:27:14.975Z,45.87
2018-11-02T04:29:43.667Z,46.53
2018-11-02T04:32:12.317Z,46.90
2018-11-02T04:34:41.023Z,41.43
2018-11-02T04:37:09.689Z,43.93
2018-11-02T04:39:38.390Z,42.47
2018-11-02T04:42:07.083Z,42.03
2018-11-02T04:44:35.782Z,46.67
2018-11-02T04:47:04.528Z,40.77
2018-11-02T04:49:33.223Z,44.47
2018-11-02T04:52:01.885Z,40.63
2018-11-02T04:54:30.569Z,43.20
2018-11-02T04:56:59.277Z,47.57
2018-11-02T04:59:27.988Z,48.10
2018-11-02T05:01:56.780Z,48.37
2018-11-02T05:04:25.441Z,46.80
2018-11-02T05:06:54.151Z,49.40
2018-11-02T05:09:22.944Z,47.10
2018-11-02T05:11:51.697Z,46.67
2018-11-02T05:14:20.447Z,46.87
2018-11-02T05:16:49.148Z,50.60
2018-11-02T05:19:17.783Z,47.83
2018-11-02T05:21:46.442Z,48.27
2018-11-02T05:24:15.044Z,45.87
2018-11-02T05:26:43.793Z,46.77
2018-11-02T05:29:12.449Z,51.87
2018-11-02T05:31:41.189Z,48.40
2018-11-02T05:34:09.928Z,52.73
2018-11-02T05:36:38.694Z,54.00
2018-11-02T05:39:09.936Z,56.87
2018-11-02T05:41:38.653Z,51.83
2018-11-02T05:44:07.517Z,54.63
2018-11-02T05:46:36.521Z,56.27
2018-11-02T05:49:05.453Z,52.73
2018-11-02T05:51:34.176Z,48.60
2018-11-02T05:54:02.900Z,51.33
2018-11-02T05:56:31.647Z,51.70
2018-11-02T05:59:00.286Z,6.63
2018-11-02T06:01:29.050Z,4.80
2018-11-02T06:03:57.682Z,5.07
2018-11-02T06:06:26.355Z,6.30
2018-11-02T06:08:55.039Z,5.17
2018-11-02T06:11:23.812Z,8.53
2018-11-02T06:13:52.490Z,5.13
2018-11-02T06:16:21.213Z,8.67
2018-11-02T06:18:49.968Z,7.87
2018-11-02T06:21:18.609Z,5.97
2018-11-02T06:23:47.296Z,6.47
2018-11-02T06:26:15.925Z,8.83
2018-11-02T06:28:44.565Z,5.93
2018-11-02T06:31:13.210Z,10.63
2018-11-02T06:33:42.049Z,5.57
2018-11-02T06:36:10.804Z,5.03
2018-11-02T06:38:39.558Z,11.83
2018-11-02T06:41:08.162Z,8.20
2018-11-02T06:43:36.883Z,6.80
2018-11-02T06:46:05.640Z,5.60
2018-11-02T06:48:34.354Z,8.20
2018-11-02T06:51:03.167Z,5.13
2018-11-02T06:53:31.754Z,6.27
2018-11-02T06:56:00.465Z,8.73
2018-11-02T06:58:29.132Z,5.93
2018-11-02T07:00:57.753Z,5.93
2018-11-02T07:03:26.424Z,10.37
2018-11-02T07:05:55.277Z,10.03
2018-11-02T07:08:24.054Z,5.77
2018-11-02T07:10:52.664Z,8.27
2018-11-02T07:13:21.627Z,5.37
2018-11-02T07:15:50.294Z,7.70
2018-11-02T07:18:18.945Z,7.13
2018-11-02T07:20:47.668Z,7.27
2018-11-02T07:23:16.269Z,6.57
2018-11-02T07:25:44.918Z,5.63
2018-11-02T07:28:13.619Z,6.93
2018-11-02T07:30:42.278Z,7.27
2018-11-02T07:33:10.970Z,8.20
2018-11-02T07:35:39.577Z,5.53
2018-11-02T07:38:08.476Z,9.43
2018-11-02T07:40:37.180Z,13.30
2018-11-02T07:43:05.883Z,7.07
2018-11-02T07:45:34.540Z,7.50
2018-11-02T07:48:03.226Z,5.53
2018-11-02T07:50:31.868Z,7.97
2018-11-02T07:53:00.518Z,6.23
2018-11-02T07:55:29.184Z,6.30
2018-11-02T07:57:57.862Z,5.70
2018-11-02T08:00:26.563Z,7.97
2018-11-02T08:02:55.210Z,8.37
2018-11-02T08:05:23.879Z,8.23
2018-11-02T08:07:52.602Z,5.40
2018-11-02T08:10:21.352Z,39.77
2018-11-02T08:12:49.985Z,34.97
2018-11-02T08:15:18.809Z,32.90
2018-11-02T08:17:47.593Z,32.30
2018-11-02T08:20:16.138Z,33.47
2018-11-02T08:22:44.882Z,33.23
2018-11-02T08:25:13.779Z,34.83
2018-11-02T08:27:42.654Z,37.87
2018-11-02T08:30:12.210Z,38.23
2018-11-02T08:32:41.314Z,41.53
2018-11-02T08:35:11.997Z,28.63
2018-11-02T08:37:41.070Z,31.90
2018-11-02T08:40:10.910Z,32.73
2018-11-02T08:42:39.550Z,35.47
2018-11-02T08:45:08.672Z,31.07
2018-11-02T08:47:37.386Z,30.92
2018-11-02T08:50:07.217Z,30.88
2018-11-02T08:52:35.881Z,34.05
2018-11-02T08:55:04.926Z,35.28
2018-11-02T08:57:33.667Z,37.55
2018-11-02T09:00:02.452Z,38.67
2018-11-02T09:02:31.233Z,32.38
2018-11-02T09:04:59.910Z,32.15
2018-11-02T09:07:28.573Z,31.48
2018-11-02T09:09:57.177Z,32.08
2018-11-02T09:12:25.963Z,29.67
2018-11-02T09:14:54.616Z,33.95
2018-11-02T09:17:23.385Z,29.40
2018-11-02T09:19:52.370Z,28.75
2018-11-02T09:22:21.103Z,28.98
2018-11-02T09:24:49.774Z,26.40
2018-11-02T09:27:18.455Z,29.10
2018-11-02T09:29:47.066Z,28.35
2018-11-02T09:32:15.719Z,29.05
2018-11-02T09:34:44.364Z,27.73
2018-11-02T09:37:13.034Z,29.50
2018-11-02T09:39:41.686Z,27.42
2018-11-02T09:42:10.337Z,31.75
2018-11-02T09:44:39.041Z,28.00
2018-11-02T09:47:07.726Z,29.05
2018-11-02T09:49:36.431Z,24.23
2018-11-02T09:52:05.254Z,23.65
2018-11-02T09:54:33.862Z,21.52
2018-11-02T09:57:02.581Z,22.07
2018-11-02T09:59:31.322Z,20.52
2018-11-02T10:01:59.995Z,21.45
2018-11-02T10:04:28.677Z,20.08
2018-11-02T10:06:57.333Z,22.10
2018-11-02T10:09:26.156Z,24.30
2018-11-02T10:11:54.814Z,20.15
2018-11-02T10:14:23.710Z,20.88
2018-11-02T10:16:52.429Z,21.87
2018-11-02T10:19:21.825Z,21.50
2018-11-02T10:21:50.803Z,22.05
2018-11-02T10:24:19.479Z,21.23
2018-11-02T10:26:48.688Z,19.95
2018-11-02T10:29:17.553Z,19.48
2018-11-02T10:31:46.414Z,19.82
2018-11-02T10:34:15.110Z,20.08
2018-11-02T10:36:45.125Z,20.23
2018-11-02T10:39:15.117Z,20.45
2018-11-02T10:41:47.561Z,19.95
2018-11-02T10:44:18.200Z,21.23
2018-11-02T10:46:47.745Z,19.05
2018-11-02T10:49:16.502Z,19.90
2018-11-02T10:51:45.215Z,19.48
2018-11-02T10:54:14.959Z,19.67
2018-11-02T10:56:43.702Z,19.48
2018-11-02T10:59:12.375Z,21.80
2018-11-02T11:01:46.304Z,20.25
2018-11-02T11:04:15.182Z,19.45
2018-11-02T11:06:43.837Z,18.98
2018-11-02T11:09:13.510Z,20.52
2018-11-02T11:11:42.775Z,17.70
2018-11-02T11:14:11.614Z,19.15
2018-11-02T11:16:40.477Z,17.62
2018-11-02T11:19:10.052Z,18.50
2018-11-02T11:21:39.811Z,19.25
2018-11-02T11:24:08.601Z,22.62
2018-11-02T11:26:37.842Z,19.98
2018-11-02T11:29:07.130Z,19.57
2018-11-02T11:31:36.494Z,20.12
2018-11-02T11:34:05.923Z,20.43
2018-11-02T11:36:34.648Z,18.20
2018-11-02T11:39:03.641Z,18.02
2018-11-02T11:41:32.313Z,16.85
2018-11-02T11:44:01.025Z,15.15
2018-11-02T11:46:30.004Z,20.30
2018-11-02T11:48:59.789Z,18.52
2018-11-02T11:51:29.545Z,16.65
2018-11-02T11:53:59.650Z,19.73
2018-11-02T11:56:28.340Z,14.28
2018-11-02T11:58:57.105Z,15.98
2018-11-02T12:01:26.029Z,18.20
2018-11-02T12:03:54.842Z,16.20
2018-11-02T12:06:23.515Z,16.95
2018-11-02T12:08:52.241Z,15.00
2018-11-02T12:11:21.721Z,17.55
2018-11-02T12:13:50.445Z,16.95
2018-11-02T12:16:19.152Z,14.40
2018-11-02T12:18:47.839Z,14.77
2018-11-02T12:21:16.609Z,16.87
2018-11-02T12:23:45.687Z,15.53
2018-11-02T12:26:14.713Z,16.63
2018-11-02T12:28:43.448Z,16.63
2018-11-02T12:31:12.067Z,18.87
2018-11-02T12:33:40.771Z,14.80
2018-11-02T12:36:09.465Z,17.93
2018-11-02T12:38:38.180Z,16.90
2018-11-02T12:41:06.994Z,14.50
2018-11-02T12:43:35.750Z,15.90
2018-11-02T12:46:04.330Z,14.67
2018-11-02T12:48:33.073Z,16.20
2018-11-02T12:51:01.710Z,12.97
2018-11-02T12:53:30.731Z,13.43
2018-11-02T12:56:00.021Z,15.93
2018-11-02T12:58:28.878Z,13.60
2018-11-02T13:00:57.589Z,16.77
2018-11-02T13:03:26.309Z,16.20
2018-11-02T13:05:55.154Z,14.47
2018-11-02T13:08:24.031Z,16.00
2018-11-02T13:10:52.764Z,14.73
2018-11-02T13:13:21.615Z,17.10
2018-11-02T13:15:50.297Z,15.80
2018-11-02T13:18:20.448Z,13.40
2018-11-02T13:20:49.122Z,14.50
2018-11-02T13:23:18.058Z,13.30
2018-11-02T13:25:46.809Z,13.80
2018-11-02T13:28:15.444Z,13.97
2018-11-02T13:30:45.547Z,17.10
2018-11-02T13:33:14.268Z,12.40
2018-11-02T13:35:43.270Z,13.60
2018-11-02T13:38:12.035Z,12.90
2018-11-02T13:40:40.743Z,12.47
2018-11-02T13:43:10.413Z,16.43
2018-11-02T13:45:39.038Z,15.03
2018-11-02T13:48:07.729Z,14.20
2018-11-02T13:50:36.694Z,15.00
2018-11-02T13:53:05.799Z,16.83
2018-11-02T13:55:34.801Z,12.73
2018-11-02T13:58:03.465Z,12.67
2018-11-02T14:00:32.110Z,12.70
2018-11-02T14:03:00.729Z,15.20
2018-11-02T14:05:29.402Z,12.10
2018-11-02T14:07:58.138Z,13.77
2018-11-02T14:10:26.837Z,12.33
2018-11-02T14:12:55.553Z,13.80
2018-11-02T14:15:24.281Z,13.70
2018-11-02T14:17:53.313Z,11.50
2018-11-02T14:20:22.138Z,15.00
2018-11-02T14:22:50.782Z,12.43
2018-11-02T14:25:19.416Z,14.43
2018-11-02T14:27:48.107Z,15.77
2018-11-02T14:30:17.786Z,14.43
2018-11-02T14:32:47.337Z,11.73
2018-11-02T14:35:15.981Z,14.33
2018-11-02T14:37:44.719Z,13.63
2018-11-02T14:40:13.490Z,12.80
2018-11-02T14:42:42.696Z,16.67
2018-11-02T14:45:13.210Z,18.17
2018-11-02T14:47:42.178Z,15.27
2018-11-02T14:50:11.520Z,13.73
2018-11-02T14:52:40.293Z,15.77
2018-11-02T14:55:09.422Z,16.60
2018-11-02T14:57:39.021Z,13.17
2018-11-02T15:00:10.448Z,17.57
2018-11-02T15:02:39.520Z,15.20
2018-11-02T15:05:09.701Z,15.57
2018-11-02T15:07:38.810Z,14.87
2018-11-02T15:10:07.946Z,13.93
2018-11-02T15:12:37.158Z,13.53
2018-11-02T15:15:07.080Z,12.80
2018-11-02T15:17:35.734Z,14.00
2018-11-02T15:20:04.871Z,13.83
2018-11-02T15:22:33.533Z,13.87
2018-11-02T15:25:02.188Z,16.17
2018-11-02T15:27:30.837Z,13.97
2018-11-02T15:29:59.618Z,13.20
2018-11-02T15:32:28.318Z,14.23
2018-11-02T15:34:57.012Z,15.13
2018-11-02T15:37:26.366Z,14.00
2018-11-02T15:39:55.129Z,16.70
2018-11-02T15:42:23.804Z,18.97
2018-11-02T15:44:52.470Z,12.83
2018-11-02T15:47:21.122Z,13.93
2018-11-02T15:49:49.825Z,16.20
2018-11-02T15:52:18.511Z,16.20
2018-11-02T15:54:47.230Z,18.43
2018-11-02T15:57:17.269Z,16.33
2018-11-02T15:59:46.101Z,18.03
2018-11-02T16:02:14.745Z,14.73
2018-11-02T16:04:43.443Z,19.17
2018-11-02T16:07:12.963Z,15.03
2018-11-02T16:09:41.789Z,15.43
2018-11-02T16:12:10.451Z,15.07
2018-11-02T16:14:39.092Z,16.30
2018-11-02T16:17:07.804Z,16.90
2018-11-02T16:19:36.541Z,12.93
2018-11-02T16:22:05.712Z,15.67
2018-11-02T16:24:34.488Z,16.63
2018-11-02T16:27:03.837Z,17.47
2018-11-02T16:29:32.566Z,14.67
2018-11-02T16:32:01.513Z,17.07
2018-11-02T16:34:30.218Z,16.47
2018-11-02T16:36:58.913Z,16.60
2018-11-02T16:39:27.628Z,18.40
2018-11-02T16:41:56.533Z,20.00
2018-11-02T16:44:25.678Z,19.20
2018-11-02T16:46:54.370Z,20.47
2018-11-02T16:49:23.021Z,22.67
2018-11-02T16:51:52.585Z,20.43
2018-11-02T16:54:21.437Z,23.83
2018-11-02T16:56:50.081Z,22.17
2018-11-02T16:59:19.222Z,26.40
2018-11-02T17:01:47.924Z,30.60
2018-11-02T17:04:16.592Z,27.77
2018-11-02T17:06:45.581Z,35.50
2018-11-02T17:09:14.309Z,30.33
2018-11-02T17:11:43.044Z,32.07
2018-11-02T17:14:11.755Z,32.30
2018-11-02T17:16:40.445Z,34.00
2018-11-02T17:19:09.176Z,37.23
2018-11-02T17:21:37.881Z,38.57
2018-11-02T17:24:06.682Z,45.77
2018-11-02T17:26:35.836Z,41.60
2018-11-02T17:29:04.955Z,50.33
2018-11-02T17:31:33.731Z,42.43
2018-11-02T17:34:02.381Z,43.77
2018-11-02T17:36:31.069Z,42.67
2018-11-02T17:38:59.761Z,37.30
2018-11-02T17:41:28.454Z,40.20
2018-11-02T17:43:57.103Z,39.40
2018-11-02T17:46:25.827Z,31.80
2018-11-02T17:48:54.526Z,35.07
2018-11-02T17:51:23.167Z,40.50
2018-11-02T17:53:51.802Z,34.30
2018-11-02T17:56:20.509Z,34.53
2018-11-02T17:58:49.170Z,33.70
2018-11-02T18:01:17.834Z,36.17
2018-11-02T18:03:46.509Z,32.20
2018-11-02T18:06:15.277Z,33.50
2018-11-02T18:08:43.868Z,35.20
2018-11-02T18:11:12.542Z,39.47
2018-11-02T18:13:41.298Z,40.37
2018-11-02T18:16:09.992Z,31.23
2018-11-02T18:18:38.711Z,32.97
2018-11-02T18:21:07.311Z,36.27
2018-11-02T18:23:35.964Z,36.60
2018-11-02T18:26:04.736Z,36.90
2018-11-02T18:28:33.360Z,41.40
2018-11-02T18:31:02.081Z,34.30
2018-11-02T18:33:30.715Z,36.17
2018-11-02T18:36:00.303Z,35.53
2018-11-02T18:38:28.940Z,39.87
2018-11-02T18:40:57.671Z,47.13
2018-11-02T18:43:26.301Z,45.63
2018-11-02T18:45:55.058Z,41.20
2018-11-02T18:48:23.840Z,42.00
2018-11-02T18:50:52.410Z,40.73
2018-11-02T18:53:21.362Z,45.20
2018-11-02T18:55:50.289Z,43.27
2018-11-02T18:58:19.092Z,45.07
2018-11-02T19:00:47.770Z,43.20
2018-11-02T19:03:16.442Z,42.30
2018-11-02T19:05:45.258Z,42.50
2018-11-02T19:08:13.850Z,33.30
2018-11-02T19:10:42.512Z,40.40
2018-11-02T19:13:11.250Z,49.33
2018-11-02T19:15:40.691Z,49.97
2018-11-02T19:18:09.341Z,56.07
2018-11-02T19:20:37.985Z,58.97
2018-11-02T19:23:06.707Z,48.33
2018-11-02T19:25:35.369Z,49.10
2018-11-02T19:28:04.054Z,56.00
2018-11-02T19:30:32.853Z,51.17
2018-11-02T19:33:01.581Z,46.03
2018-11-02T19:35:33.450Z,44.00
2018-11-02T19:38:02.069Z,42.93
2018-11-02T19:40:30.746Z,48.13
2018-11-02T19:42:59.420Z,60.57
2018-11-02T19:45:28.084Z,58.30
2018-11-02T19:48:02.355Z,50.40
2018-11-02T19:50:31.111Z,56.23
2018-11-02T19:52:59.792Z,56.73
2018-11-02T19:55:28.473Z,60.30
2018-11-02T19:57:58.032Z,65.13
2018-11-02T20:00:26.695Z,63.90
2018-11-02T20:02:55.368Z,65.50
2018-11-02T20:05:24.042Z,61.83
2018-11-02T20:07:52.775Z,59.13
2018-11-02T20:10:21.440Z,64.47
2018-11-02T20:12:50.125Z,55.43
2018-11-02T20:15:19.022Z,57.47
2018-11-02T20:17:48.320Z,58.30
2018-11-02T20:20:17.566Z,57.43
2018-11-02T20:22:46.300Z,50.80
2018-11-02T20:25:16.260Z,49.30
2018-11-02T20:27:45.062Z,50.20
2018-11-02T20:30:15.676Z,52.37
2018-11-02T20:32:44.582Z,43.40
2018-11-02T20:35:13.362Z,46.93
2018-11-02T20:37:42.042Z,48.93
2018-11-02T20:40:16.274Z,49.63
2018-11-02T20:42:45.637Z,47.73
2018-11-02T20:45:14.895Z,46.00
2018-11-02T20:47:49.128Z,44.53
2018-11-02T20:50:18.010Z,45.00
2018-11-02T20:52:46.694Z,44.33
2018-11-02T20:55:15.795Z,47.97
2018-11-02T20:57:44.563Z,43.60
2018-11-02T21:00:19.950Z,48.53
2018-11-02T21:02:48.607Z,49.07
2018-11-02T21:05:18.345Z,53.27
2018-11-02T21:07:47.687Z,52.77
2018-11-02T21:10:17.545Z,48.23
2018-11-02T21:12:46.297Z,52.77
2018-11-02T21:15:17.269Z,51.13
2018-11-02T21:17:46.073Z,47.60
2018-11-02T21:20:16.094Z,51.90
2018-11-02T21:22:44.767Z,47.80
2018-11-02T21:25:14.042Z,49.97
2018-11-02T21:27:43.372Z,55.40
2018-11-02T21:30:14.754Z,53.10
2018-11-02T21:32:44.001Z,58.53
2018-11-02T21:35:12.763Z,69.77
2018-11-02T21:37:41.464Z,65.20
2018-11-02T21:40:13.478Z,64.13
2018-11-02T21:42:42.789Z,57.40
2018-11-02T21:45:12.639Z,52.60
2018-11-02T21:47:41.607Z,51.83
2018-11-02T21:50:12.289Z,58.13
2018-11-02T21:52:41.081Z,59.80
2018-11-02T21:55:09.956Z,62.93
2018-11-02T21:57:38.772Z,63.77
2018-11-02T22:00:13.483Z,64.93
2018-11-02T22:02:42.182Z,59.53
2018-11-02T22:05:12.327Z,57.50
2018-11-02T22:07:41.702Z,56.73
2018-11-02T22:10:11.311Z,53.77
2018-11-02T22:12:40.078Z,60.17
2018-11-02T22:15:09.313Z,76.43
2018-11-02T22:17:37.985Z,81.97
2018-11-02T22:20:08.305Z,79.20
2018-11-02T22:22:37.018Z,72.60
2018-11-02T22:25:06.900Z,69.37
2018-11-02T22:27:35.834Z,63.00
2018-11-02T22:30:10.640Z,56.90
2018-11-02T22:32:39.420Z,49.63
2018-11-02T22:35:08.210Z,49.13
2018-11-02T22:37:36.847Z,51.93
2018-11-02T22:40:06.837Z,48.30
2018-11-02T22:42:35.526Z,43.57
2018-11-02T22:45:04.352Z,42.20
2018-11-02T22:47:33.002Z,48.90
2018-11-02T22:50:01.636Z,51.53
2018-11-02T22:52:30.319Z,82.20
2018-11-02T22:54:58.977Z,94.53
2018-11-02T22:57:27.624Z,106.37
2018-11-02T22:59:56.250Z,99.80
2018-11-02T23:02:24.960Z,105.07
2018-11-02T23:04:53.621Z,105.10
2018-11-02T23:07:22.281Z,111.97
2018-11-02T23:09:50.988Z,107.33
2018-11-02T23:12:19.710Z,105.40
2018-11-02T23:14:48.733Z,101.77
2018-11-02T23:17:17.506Z,81.93
2018-11-02T23:19:46.121Z,82.00
2018-11-02T23:22:14.830Z,82.03
2018-11-02T23:24:43.469Z,74.40
2018-11-02T23:27:12.201Z,65.70
2018-11-02T23:29:40.973Z,72.57
2018-11-02T23:32:09.674Z,62.00
2018-11-02T23:34:38.354Z,58.03
2018-11-02T23:37:07.344Z,57.87
2018-11-02T23:39:36.016Z,57.90
2018-11-02T23:42:04.807Z,52.37
2018-11-02T23:44:33.476Z,54.30
2018-11-02T23:47:02.161Z,53.23
2018-11-02T23:49:30.837Z,47.70
2018-11-02T23:51:59.586Z,49.63
2018-11-02T23:54:28.232Z,47.70
2018-11-02T23:56:56.855Z,52.00
2018-11-02T23:59:25.886Z,47.60
